Time;durP1;ratioP1;P1;durP2;ratioP2;P2;SDS_P1;SDS_P2;PMS_P1;PMS_P2;Temp;Humidity;BMP_temperature;BMP_pressure;BME280_temperature;BME280_humidity;BME280_pressure;Samples;Min_cycle;Max_cycle;Signal;HPM_P1;HPM_P2
2024/03/31 00:02:25;;;;;;;0.00;0.00;;;;;;;;;;6281415;22;20000;-92
2024/03/31 00:04:51;;;;;;;0.00;0.00;;;9.80;99.90;;;;;;6281465;22;20061;-91
2024/03/31 00:07:17;;;;;;;0.00;0.00;;;;;;;;;;6282819;22;20007;-90
2024/03/31 00:09:48;;;;;;;0.00;0.00;;;;;;;;;;6282995;22;20011;-91
2024/03/31 00:12:14;;;;;;;0.00;0.00;;;;;;;;;;6283648;22;20011;-89
2024/03/31 00:14:40;;;;;;;0.00;0.00;;;;;;;;;;6282007;22;20004;-91
2024/03/31 00:17:06;;;;;;;0.00;0.00;;;;;;;;;;6282688;22;20084;-90
2024/03/31 00:19:32;;;;;;;0.00;0.00;;;;;;;;;;6282813;22;20004;-91
2024/03/31 00:21:58;;;;;;;0.00;0.00;;;9.60;99.90;;;;;;6282566;22;20004;-88
2024/03/31 00:24:26;;;;;;;0.00;0.00;;;9.60;99.90;;;;;;6283207;22;20000;-90
2024/03/31 00:26:52;;;;;;;0.00;0.00;;;;;;;;;;6285262;22;20442;-90
2024/03/31 00:29:18;;;;;;;0.00;0.00;;;;;;;;;;6283824;22;20008;-91
2024/03/31 00:31:44;;;;;;;0.00;0.00;;;9.60;99.90;;;;;;6284405;22;20008;-92
2024/03/31 00:34:10;;;;;;;0.00;0.00;;;;;;;;;;6285438;22;20015;-91
2024/03/31 00:36:36;;;;;;;0.03;0.03;;;;;;;;;;6285422;22;20053;-90
2024/03/31 00:39:02;;;;;;;0.08;0.08;;;;;;;;;;6285372;22;20003;-91
2024/03/31 00:41:28;;;;;;;0.00;0.00;;;;;;;;;;6286913;22;20458;-91
2024/03/31 00:43:54;;;;;;;0.00;0.00;;;;;;;;;;6285752;22;20003;-90
2024/03/31 00:46:20;;;;;;;0.00;0.00;;;;;;;;;;6286610;22;20000;-90
2024/03/31 00:48:45;;;;;;;0.10;0.10;;;;;;;;;;6287198;22;20008;-91
2024/03/31 00:51:11;;;;;;;0.10;0.10;;;;;;;;;;6288636;22;20000;-91
2024/03/31 00:53:37;;;;;;;0.00;0.00;;;;;;;;;;6288413;22;20057;-91
2024/03/31 00:56:03;;;;;;;0.00;0.00;;;;;;;;;;6289032;22;20014;-91
2024/03/31 00:58:30;;;;;;;0.00;0.00;;;;;;;;;;6290834;22;20175;-91
2024/03/31 01:00:56;;;;;;;0.00;0.00;;;;;;;;;;6290238;22;20012;-91
2024/03/31 01:03:31;;;;;;;0.03;0.03;;;;;;;;;;6292748;22;20016;-91
2024/03/31 01:05:59;;;;;;;0.00;0.00;;;9.00;99.90;;;;;;6293665;22;20079;-88
2024/03/31 01:08:25;;;;;;;0.10;0.10;;;;;;;;;;6292976;22;20004;-89
2024/03/31 01:10:52;;;;;;;0.10;0.10;;;8.90;99.90;;;;;;6292750;22;20004;-88
2024/03/31 01:13:18;;;;;;;0.00;0.00;;;;;;;;;;6301170;22;19992;-90
2024/03/31 01:15:44;;;;;;;0.00;0.00;;;;;;;;;;6289283;22;20485;-91
2024/03/31 01:18:11;;;;;;;0.00;0.00;;;;;;;;;;6278233;22;20004;-91
2024/03/31 01:20:37;;;;;;;0.00;0.00;;;;;;;;;;6277396;22;20008;-88
2024/03/31 01:23:03;;;;;;;0.00;0.00;;;;;;;;;;6277891;22;20014;-90
2024/03/31 01:25:33;;;;;;;0.10;0.10;;;8.80;99.90;;;;;;6277795;22;19995;-88
2024/03/31 01:27:59;;;;;;;0.00;0.00;;;;;;;;;;6276804;22;20440;-90
2024/03/31 01:30:25;;;;;;;0.10;0.10;;;;;;;;;;6276432;22;20007;-91
2024/03/31 01:32:51;;;;;;;0.10;0.10;;;;;;;;;;6277533;22;20011;-90
2024/03/31 01:35:17;;;;;;;0.00;0.00;;;;;;;;;;6277694;22;20012;-90
2024/03/31 01:37:43;;;;;;;0.00;0.00;;;;;;;;;;6279432;22;20049;-91
2024/03/31 01:40:09;;;;;;;0.00;0.00;;;8.80;99.90;;;;;;6278784;22;20011;-92
2024/03/31 01:42:35;;;;;;;0.10;0.10;;;;;;;;;;6279338;22;19999;-91
2024/03/31 01:45:01;;;;;;;0.00;0.00;;;;;;;;;;6280180;22;20087;-91
2024/03/31 01:47:27;;;;;;;0.10;0.10;;;;;;;;;;6281394;22;20447;-92
2024/03/31 01:49:53;;;;;;;0.10;0.10;;;;;;;;;;6279124;22;20008;-90
2024/03/31 01:52:18;;;;;;;0.10;0.10;;;;;;;;;;6280374;22;20015;-91
2024/03/31 01:54:44;;;;;;;0.10;0.10;;;;;;;;;;6279121;22;20069;-91
2024/03/31 01:57:10;;;;;;;0.00;0.00;;;;;;;;;;6279401;22;20011;-90
2024/03/31 01:59:36;;;;;;;0.00;0.00;;;;;;;;;;6278457;22;20007;-91
2024/03/31 02:02:02;;;;;;;0.00;0.00;;;;;;;;;;6279485;22;20337;-92
2024/03/31 02:04:28;;;;;;;0.10;0.10;;;;;;;;;;6278928;22;20002;-91
2024/03/31 02:06:54;;;;;;;0.00;0.00;;;;;;;;;;6279267;22;20039;-92
2024/03/31 02:09:20;;;;;;;0.10;0.10;;;;;;;;;;6278742;22;20031;-91
2024/03/31 02:11:46;;;;;;;0.05;0.05;;;;;;;;;;6279157;22;20011;-92
2024/03/31 02:14:12;;;;;;;0.00;0.00;;;;;;;;;;6279456;22;20004;-91
2024/03/31 02:16:38;;;;;;;0.00;0.00;;;;;;;;;;6278618;22;20087;-91
2024/03/31 02:19:04;;;;;;;0.10;0.10;;;;;;;;;;6279828;22;20090;-90
2024/03/31 02:21:29;;;;;;;0.10;0.10;;;;;;;;;;6279741;22;20030;-91
2024/03/31 02:23:55;;;;;;;0.00;0.00;;;;;;;;;;6280085;22;20008;-91
2024/03/31 02:26:21;;;;;;;0.00;0.00;;;;;;;;;;6279938;22;20099;-91
2024/03/31 02:28:47;;;;;;;0.00;0.00;;;;;;;;;;6278620;22;20087;-91
2024/03/31 02:31:13;;;;;;;0.00;0.00;;;8.70;99.90;;;;;;6278954;22;20031;-92
2024/03/31 02:33:38;;;;;;;0.00;0.00;;;;;;;;;;6278061;22;20463;-91
2024/03/31 02:36:05;;;;;;;0.00;0.00;;;;;;;;;;6279652;22;20019;-90
2024/03/31 02:38:31;;;;;;;0.05;0.05;;;;;;;;;;6279315;22;20010;-91
2024/03/31 02:40:57;;;;;;;0.10;0.10;;;;;;;;;;6278032;22;20007;-91
2024/03/31 02:43:23;;;;;;;0.00;0.00;;;;;;;;;;6279138;22;20570;-91
2024/03/31 02:45:48;;;;;;;0.05;0.05;;;8.80;99.90;;;;;;6278370;22;20031;-90
2024/03/31 02:48:14;;;;;;;0.10;0.10;;;;;;;;;;6279585;22;20003;-91
2024/03/31 02:50:40;;;;;;;0.10;0.10;;;;;;;;;;6279822;22;20097;-91
2024/03/31 02:53:06;;;;;;;0.10;0.10;;;;;;;;;;6279468;22;20046;-91
2024/03/31 02:55:32;;;;;;;0.00;0.00;;;;;;;;;;6278731;22;20057;-90
2024/03/31 02:57:58;;;;;;;0.10;0.10;;;;;;;;;;6280173;22;20454;-90
2024/03/31 03:00:24;;;;;;;0.10;0.10;;;;;;;;;;6279928;22;20138;-91
2024/03/31 03:02:50;;;;;;;0.00;0.00;;;8.80;99.90;;;;;;6279555;22;20337;-91
2024/03/31 03:05:16;;;;;;;0.10;0.10;;;;;;;;;;6278452;22;19999;-90
2024/03/31 03:07:42;;;;;;;0.10;0.10;;;;;;;;;;6278816;22;20003;-90
2024/03/31 03:10:08;;;;;;;0.00;0.00;;;;;;;;;;6278883;22;20459;-89
2024/03/31 03:12:34;;;;;;;0.10;0.10;;;;;;;;;;6279427;22;20038;-88
2024/03/31 03:14:59;;;;;;;0.00;0.00;;;9.00;99.90;;;;;;6277713;22;20011;-93
2024/03/31 03:17:25;;;;;;;0.00;0.00;;;;;;;;;;6278983;22;20082;-90
2024/03/31 03:19:54;;;;;;;0.00;0.00;;;9.00;99.90;;;;;;6279213;22;20004;-90
2024/03/31 03:22:19;;;;;;;0.00;0.00;;;;;;;;;;6279726;22;20104;-91
2024/03/31 03:24:46;;;;;;;0.10;0.10;;;;;;;;;;6279586;22;20000;-90
2024/03/31 03:27:12;;;;;;;0.00;0.00;;;;;;;;;;6279985;22;20007;-91
2024/03/31 03:29:38;;;;;;;0.10;0.10;;;;;;;;;;6276314;22;20436;-90
2024/03/31 03:32:04;;;;;;;0.00;0.00;;;;;;;;;;6278856;22;20012;-90
2024/03/31 03:34:30;;;;;;;0.10;0.10;;;;;;;;;;6279624;22;20022;-91
2024/03/31 03:36:56;;;;;;;0.00;0.00;;;;;;;;;;6279553;22;20450;-90
2024/03/31 03:39:22;;;;;;;0.10;0.10;;;;;;;;;;6278101;22;20012;-90
2024/03/31 03:41:47;;;;;;;0.10;0.10;;;;;;;;;;6278970;22;20000;-92
2024/03/31 03:44:13;;;;;;;0.00;0.00;;;;;;;;;;6278920;22;20015;-89
2024/03/31 03:46:39;;;;;;;0.00;0.00;;;;;;;;;;6280293;22;20004;-91
2024/03/31 03:49:05;;;;;;;0.00;0.00;;;;;;;;;;6280403;22;20014;-91
2024/03/31 03:51:31;;;;;;;0.00;0.00;;;;;;;;;;6279677;22;20003;-91
2024/03/31 03:53:57;;;;;;;0.10;0.10;;;;;;;;;;6279506;22;20000;-91
2024/03/31 03:56:23;;;;;;;0.10;0.10;;;;;;;;;;6280236;22;20007;-92
2024/03/31 03:58:49;;;;;;;0.00;0.00;;;;;;;;;;6279349;22;20004;-89
2024/03/31 04:01:15;;;;;;;0.00;0.00;;;;;;;;;;6280532;22;20002;-89
2024/03/31 04:03:41;;;;;;;0.00;0.00;;;;;;;;;;6280807;22;20035;-90
2024/03/31 04:06:07;;;;;;;0.10;0.10;;;;;;;;;;6280277;22;20470;-91
2024/03/31 04:08:33;;;;;;;0.00;0.00;;;;;;;;;;6281002;22;20012;-91
2024/03/31 04:10:59;;;;;;;0.00;0.00;;;;;;;;;;6280449;22;19999;-91
2024/03/31 04:13:25;;;;;;;0.00;0.00;;;;;;;;;;6281526;22;20008;-91
2024/03/31 04:15:57;;;;;;;0.00;0.00;;;9.30;99.90;;;;;;6281258;22;20100;-90
2024/03/31 04:18:23;;;;;;;0.10;0.10;;;;;;;;;;6281204;22;20065;-92
2024/03/31 04:20:49;;;;;;;0.00;0.00;;;;;;;;;;6281284;22;20000;-89
2024/03/31 04:23:15;;;;;;;0.00;0.00;;;;;;;;;;6283298;22;20000;-90
2024/03/31 04:25:41;;;;;;;0.10;0.10;;;;;;;;;;6280618;22;19996;-90
2024/03/31 04:28:07;;;;;;;0.00;0.00;;;;;;;;;;6282923;22;20010;-90
2024/03/31 04:30:43;;;;;;;0.00;0.00;;;9.30;99.90;;;;;;6283191;22;20061;-89
2024/03/31 04:33:12;;;;;;;0.00;0.00;;;9.40;99.90;;;;;;6283440;22;20043;-90
2024/03/31 04:35:38;;;;;;;0.00;0.00;;;9.30;99.90;;;;;;6283526;22;20007;-90
2024/03/31 04:38:04;;;;;;;0.00;0.00;;;;;;;;;;6282701;22;20150;-89
2024/03/31 04:40:30;;;;;;;0.00;0.00;;;;;;;;;;6285462;22;20011;-91
2024/03/31 04:42:56;;;;;;;0.00;0.00;;;;;;;;;;6284540;22;20000;-90
2024/03/31 04:45:23;;;;;;;0.03;0.03;;;9.30;99.90;;;;;;6283956;22;20030;-89
2024/03/31 04:47:49;;;;;;;0.00;0.00;;;;;;;;;;6284871;22;20432;-88
2024/03/31 04:50:15;;;;;;;0.00;0.00;;;;;;;;;;6284738;22;20019;-90
2024/03/31 04:52:41;;;;;;;0.00;0.00;;;;;;;;;;6284718;22;20430;-90
2024/03/31 04:55:07;;;;;;;0.00;0.00;;;;;;;;;;6284977;22;20008;-91
2024/03/31 04:57:33;;;;;;;0.00;0.00;;;;;;;;;;6286251;22;20011;-91
2024/03/31 04:59:59;;;;;;;0.00;0.00;;;;;;;;;;6286095;22;20027;-90
2024/03/31 05:02:25;;;;;;;0.00;0.00;;;;;;;;;;6286459;22;20022;-90
2024/03/31 05:04:51;;;;;;;0.00;0.00;;;9.60;99.90;;;;;;6288429;22;20026;-88
2024/03/31 05:07:18;;;;;;;0.00;0.00;;;9.40;99.90;;;;;;6288760;22;20026;-89
2024/03/31 05:09:43;;;;;;;0.00;0.00;;;;;;;;;;6287941;22;20007;-89
2024/03/31 05:12:09;;;;;;;0.00;0.00;;;;;;;;;;6288481;22;20014;-90
2024/03/31 05:14:35;;;;;;;0.10;0.10;;;;;;;;;;6289145;22;20028;-86
2024/03/31 05:17:03;;;;;;;0.00;0.00;;;;;;;;;;6288772;22;20309;-89
2024/03/31 05:19:29;;;;;;;0.00;0.00;;;;;;;;;;6290267;22;20011;-89
2024/03/31 05:21:55;;;;;;;0.10;0.10;;;;;;;;;;6289122;22;20007;-89
2024/03/31 05:24:21;;;;;;;0.00;0.00;;;;;;;;;;6296650;22;19995;-88
2024/03/31 05:26:46;;;;;;;0.00;0.00;;;;;;;;;;6294064;22;20007;-89
2024/03/31 05:29:12;;;;;;;0.03;0.03;;;;;;;;;;6283610;22;20012;-90
2024/03/31 05:31:38;;;;;;;0.00;0.00;;;;;;;;;;6279225;22;20010;-91
2024/03/31 05:34:04;;;;;;;0.03;0.03;;;;;;;;;;6279252;22;20023;-89
2024/03/31 05:36:31;;;;;;;0.00;0.00;;;;;;;;;;6277640;22;20004;-90
2024/03/31 05:38:56;;;;;;;0.10;0.10;;;;;;;;;;6277681;22;20034;-88
2024/03/31 05:41:23;;;;;;;0.10;0.10;;;;;;;;;;6278032;22;20082;-90
2024/03/31 05:43:49;;;;;;;0.00;0.00;;;;;;;;;;6280587;22;20383;-90
2024/03/31 05:46:14;;;;;;;0.00;0.00;;;;;;;;;;6279479;22;20007;-91
2024/03/31 05:48:40;;;;;;;0.00;0.00;;;;;;;;;;6280201;22;20014;-92
2024/03/31 05:51:06;;;;;;;0.10;0.10;;;;;;;;;;6279087;22;20074;-89
2024/03/31 05:53:32;;;;;;;0.00;0.00;;;;;;;;;;6281683;22;20003;-90
2024/03/31 05:55:58;;;;;;;0.03;0.03;;;;;;;;;;6280606;22;20459;-90
2024/03/31 05:58:24;;;;;;;0.00;0.00;;;;;;;;;;6278875;22;20459;-89
2024/03/31 06:00:51;;;;;;;0.00;0.00;;;;;;;;;;6279147;22;20011;-90
2024/03/31 06:03:16;;;;;;;0.00;0.00;;;;;;;;;;6279998;22;20013;-89
2024/03/31 06:05:43;;;;;;;0.00;0.00;;;;;;;;;;6279175;22;20078;-90
2024/03/31 06:08:08;;;;;;;0.00;0.00;;;;;;;;;;6281404;22;20000;-89
2024/03/31 06:10:37;;;;;;;0.00;0.00;;;9.70;99.90;;;;;;6280404;22;20018;-90
2024/03/31 06:13:04;;;;;;;0.00;0.00;;;9.70;99.90;;;;;;6280441;22;20082;-92
2024/03/31 06:15:31;;;;;;;0.00;0.00;;;;;;;;;;6280975;22;20004;-92
2024/03/31 06:17:57;;;;;;;0.00;0.00;;;;;;;;;;6281414;22;20008;-91
2024/03/31 06:20:23;;;;;;;0.00;0.00;;;;;;;;;;6277770;22;20571;-88
2024/03/31 06:22:49;;;;;;;0.00;0.00;;;;;;;;;;6280802;22;20079;-89
2024/03/31 06:25:15;;;;;;;0.00;0.00;;;;;;;;;;6282095;22;20019;-91
2024/03/31 06:27:41;;;;;;;0.10;0.10;;;;;;;;;;6279634;22;20010;-91
2024/03/31 06:30:07;;;;;;;0.10;0.10;;;;;;;;;;6281028;22;20007;-90
2024/03/31 06:32:33;;;;;;;0.00;0.00;;;;;;;;;;6282916;22;20019;-91
2024/03/31 06:34:59;;;;;;;0.08;0.08;;;;;;;;;;6282067;22;20149;-90
2024/03/31 06:37:25;;;;;;;0.00;0.00;;;;;;;;;;6282110;22;20004;-91
2024/03/31 06:39:52;;;;;;;0.10;0.10;;;;;;;;;;6281642;22;20042;-91
2024/03/31 06:42:18;;;;;;;0.10;0.10;;;;;;;;;;6282805;22;20141;-91
2024/03/31 15:27:57;;;;;;;0.00;0.00;;;;;;;;;;6297396;22;20015;-88
2024/03/31 15:30:23;;;;;;;0.00;0.00;;;;;;;;;;6296234;22;19996;-88
2024/03/31 15:32:52;;;;;;;0.00;0.00;;;18.50;99.70;;;;;;6295890;22;20556;-89
2024/03/31 15:35:18;;;;;;;0.00;0.00;;;;;;;;;;6282786;22;20010;-90
2024/03/31 15:37:45;;;;;;;0.00;0.00;;;;;;;;;;6296833;22;20004;-88
2024/03/31 15:40:10;;;;;;;0.00;0.00;;;18.60;99.40;;;;;;6294946;22;20008;-87
2024/03/31 15:42:36;;;;;;;0.00;0.00;;;;;;;;;;6296455;22;20029;-89
2024/03/31 15:45:02;;;;;;;0.00;0.00;;;;;;;;;;6297254;22;19990;-90
2024/03/31 15:47:28;;;;;;;0.00;0.00;;;;;;;;;;6295890;22;19999;-86
2024/03/31 15:49:54;;;;;;;0.00;0.00;;;18.80;99.30;;;;;;6297521;22;19992;-86
2024/03/31 15:52:20;;;;;;;0.00;0.00;;;;;;;;;;6296333;22;20085;-83
2024/03/31 15:54:47;;;;;;;0.00;0.00;;;;;;;;;;6295729;22;20007;-88
2024/03/31 15:57:13;;;;;;;0.00;0.00;;;;;;;;;;6296632;22;20007;-88
2024/03/31 15:59:38;;;;;;;0.00;0.00;;;18.60;99.00;;;;;;6295225;22;20007;-88
2024/03/31 16:02:04;;;;;;;0.00;0.00;;;;;;;;;;6294544;22;20055;-87
2024/03/31 16:04:31;;;;;;;0.00;0.00;;;;;;;;;;6294794;22;19999;-87
2024/03/31 16:06:57;;;;;;;0.00;0.00;;;;;;;;;;6294798;22;20000;-80
2024/03/31 16:09:23;;;;;;;0.00;0.00;;;18.30;99.40;;;;;;6295172;22;20064;-88
2024/03/31 16:11:49;;;;;;;0.00;0.00;;;;;;;;;;6295302;22;20000;-87
2024/03/31 16:14:14;;;;;;;0.00;0.00;;;17.90;99.90;;;;;;6293822;22;20003;-84
2024/03/31 16:16:40;;;;;;;0.00;0.00;;;;;;;;;;6292274;22;20035;-83
2024/03/31 16:19:06;;;;;;;0.00;0.00;;;;;;;;;;6292830;22;20008;-90
2024/03/31 16:21:32;;;;;;;0.00;0.00;;;;;;;;;;6294351;22;20059;-89
2024/03/31 16:23:58;;;;;;;0.00;0.00;;;;;;;;;;6294717;22;20000;-85
2024/03/31 16:26:24;;;;;;;0.00;0.00;;;17.50;99.90;;;;;;6293869;22;20337;-89
2024/03/31 16:28:59;;;;;;;0.00;0.00;;;17.30;99.90;;;;;;6291438;22;20004;-89
2024/03/31 16:31:25;;;;;;;0.00;0.00;;;;;;;;;;6295144;22;20004;-89
2024/03/31 16:33:51;;;;;;;0.00;0.00;;;17.30;99.90;;;;;;6294546;22;20014;-87
2024/03/31 16:36:17;;;;;;;0.00;0.00;;;;;;;;;;6294720;22;20351;-86
2024/03/31 16:38:43;;;;;;;0.00;0.00;;;;;;;;;;6294920;22;20008;-89
2024/03/31 16:41:09;;;;;;;0.00;0.00;;;;;;;;;;6293921;22;20004;-88
2024/03/31 16:43:35;;;;;;;0.00;0.00;;;16.50;99.90;;;;;;6294738;22;20008;-89
2024/03/31 16:46:01;;;;;;;0.00;0.00;;;;;;;;;;6293319;22;20049;-86
2024/03/31 16:48:26;;;;;;;0.00;0.00;;;;;;;;;;6293264;22;20007;-90
2024/03/31 16:50:53;;;;;;;0.00;0.00;;;;;;;;;;6292798;22;20023;-85
2024/03/31 16:53:19;;;;;;;0.00;0.00;;;;;;;;;;6294076;22;20580;-83
2024/03/31 16:55:47;;;;;;;0.00;0.00;;;;;;;;;;6294688;22;20004;-86
2024/03/31 16:58:13;;;;;;;0.00;0.00;;;;;;;;;;6294607;22;19999;-86
2024/03/31 17:00:39;;;;;;;0.00;0.00;;;;;;;;;;6294300;22;20113;-87
2024/03/31 17:03:05;;;;;;;0.00;0.00;;;16.10;99.90;;;;;;6295050;22;20007;-85
2024/03/31 17:05:31;;;;;;;0.00;0.00;;;;;;;;;;6295296;22;20004;-85
2024/03/31 17:07:56;;;;;;;0.00;0.00;;;;;;;;;;6293864;22;20004;-90
2024/03/31 17:10:22;;;;;;;0.00;0.00;;;;;;;;;;6294632;22;20019;-89
2024/03/31 17:12:48;;;;;;;0.00;0.00;;;15.90;99.90;;;;;;6295743;22;20007;-88
2024/03/31 17:15:14;;;;;;;0.00;0.00;;;;;;;;;;6294479;22;20002;-85
2024/03/31 17:17:40;;;;;;;0.00;0.00;;;15.70;99.90;;;;;;6295975;22;20008;-86
2024/03/31 17:20:07;;;;;;;0.00;0.00;;;15.60;99.90;;;;;;6294747;22;20034;-84
2024/03/31 17:22:33;;;;;;;0.00;0.00;;;;;;;;;;6295698;22;20000;-89
2024/03/31 17:24:59;;;;;;;0.00;0.00;;;;;;;;;;6294323;22;20000;-86
2024/03/31 17:27:24;;;;;;;0.00;0.00;;;;;;;;;;6294916;22;20007;-87
2024/03/31 17:29:50;;;;;;;0.00;0.00;;;;;;;;;;6294898;22;20034;-86
2024/03/31 17:32:16;;;;;;;0.00;0.00;;;15.40;99.90;;;;;;6294801;22;20011;-85
2024/03/31 17:34:42;;;;;;;0.00;0.00;;;;;;;;;;6294838;22;20000;-83
2024/03/31 17:37:08;;;;;;;0.00;0.00;;;15.30;99.90;;;;;;6296343;22;20018;-87
2024/03/31 17:39:34;;;;;;;0.00;0.00;;;15.10;99.90;;;;;;6295184;22;19996;-81
2024/03/31 17:42:02;;;;;;;0.00;0.00;;;;;;;;;;6295611;22;19988;-84
2024/03/31 17:44:28;;;;;;;0.00;0.00;;;;;;;;;;6295464;22;20063;-89
2024/03/31 17:46:54;;;;;;;0.00;0.00;;;;;;;;;;6295633;22;20019;-89
2024/03/31 17:49:20;;;;;;;0.00;0.00;;;;;;;;;;6296597;22;20065;-84
2024/03/31 17:51:46;;;;;;;0.00;0.00;;;;;;;;;;6293226;22;20003;-89
2024/03/31 17:54:13;;;;;;;0.00;0.00;;;;;;;;;;6295495;22;20023;-89
2024/03/31 17:56:39;;;;;;;0.00;0.00;;;;;;;;;;6296359;22;19983;-86
2024/03/31 17:59:05;;;;;;;0.00;0.00;;;;;;;;;;6295368;22;20093;-86
2024/03/31 18:01:31;;;;;;;0.00;0.00;;;;;;;;;;6295273;22;20011;-87
2024/03/31 18:03:57;;;;;;;0.00;0.00;;;;;;;;;;6295268;22;20019;-89
2024/03/31 18:06:22;;;;;;;0.00;0.00;;;;;;;;;;6296065;22;20003;-83
2024/03/31 18:08:49;;;;;;;0.00;0.00;;;;;;;;;;6295572;22;20003;-88
2024/03/31 18:11:17;;;;;;;0.00;0.00;;;14.70;99.90;;;;;;6295775;22;20004;-89
2024/03/31 18:13:43;;;;;;;0.00;0.00;;;;;;;;;;6296913;22;20011;-89
2024/03/31 18:16:10;;;;;;;0.00;0.00;;;14.60;99.90;;;;;;6296648;22;20023;-85
2024/03/31 18:18:38;;;;;;;0.00;0.00;;;14.60;99.90;;;;;;6297439;22;20147;-85
2024/03/31 18:21:15;;;;;;;0.00;0.00;;;14.60;99.90;;;;;;6298075;22;20368;-83
2024/03/31 18:23:42;;;;;;;0.00;0.00;;;14.60;99.90;;;;;;6297343;22;20067;-87
2024/03/31 18:26:09;;;;;;;0.00;0.00;;;14.40;99.90;;;;;;6298530;22;20039;-87
2024/03/31 18:28:35;;;;;;;0.00;0.00;;;;;;;;;;6297550;22;20068;-86
2024/03/31 18:31:02;;;;;;;0.08;0.08;;;;;;;;;;6298020;22;20020;-85
2024/03/31 18:33:29;;;;;;;0.00;0.00;;;;;;;;;;6298122;22;20007;-89
2024/03/31 18:35:58;;;;;;;0.00;0.00;;;;;;;;;;6297322;22;20003;-87
2024/03/31 18:38:31;;;;;;;0.00;0.00;;;14.40;99.90;;;;;;6297406;22;20004;-89
2024/03/31 18:41:01;;;;;;;0.00;0.00;;;;;;;;;;6297557;22;20008;-86
2024/03/31 18:43:29;;;;;;;0.00;0.00;;;14.30;99.90;;;;;;6297785;22;19999;-85
2024/03/31 18:45:55;;;;;;;0.00;0.00;;;14.20;99.90;;;;;;6298439;22;19999;-88
2024/03/31 18:48:22;;;;;;;0.00;0.00;;;;;;;;;;6297848;22;20000;-86
2024/03/31 18:50:48;;;;;;;0.00;0.00;;;;;;;;;;6298983;22;20086;-87
2024/03/31 18:53:14;;;;;;;0.00;0.00;;;;;;;;;;6297994;22;20007;-82
2024/03/31 18:55:40;;;;;;;0.00;0.00;;;;;;;;;;6295636;22;20221;-85
2024/03/31 18:58:06;;;;;;;0.00;0.00;;;;;;;;;;6293517;22;19999;-88
2024/03/31 19:00:32;;;;;;;0.00;0.00;;;;;;;;;;6290408;22;20078;-85
2024/03/31 19:02:58;;;;;;;0.00;0.00;;;;;;;;;;6292111;22;20000;-88
2024/03/31 19:05:24;;;;;;;0.00;0.00;;;14.50;99.90;;;;;;6294118;22;20012;-88
2024/03/31 19:07:50;;;;;;;0.00;0.00;;;;;;;;;;6293594;22;20007;-91
2024/03/31 19:10:17;;;;;;;0.00;0.00;;;;;;;;;;6286279;22;20095;-87
2024/03/31 19:12:43;;;;;;;0.00;0.00;;;;;;;;;;6285555;22;20469;-90
2024/03/31 19:15:08;;;;;;;0.00;0.00;;;;;;;;;;6287306;22;20003;-88
2024/03/31 19:17:35;;;;;;;0.00;0.00;;;;;;;;;;6287996;22;20014;-89
2024/03/31 19:20:02;;;;;;;0.00;0.00;;;14.30;99.90;;;;;;6285658;22;20003;-91
2024/03/31 19:22:28;;;;;;;0.10;0.10;;;14.30;99.90;;;;;;6287064;22;20086;-92
2024/03/31 19:24:54;;;;;;;0.00;0.00;;;;;;;;;;6286391;22;20000;-93
2024/03/31 19:27:21;;;;;;;0.00;0.00;;;;;;;;;;6287171;22;20019;-91
2024/03/31 19:29:52;;;;;;;0.00;0.00;;;14.30;99.90;;;;;;6284648;22;20011;-91
2024/03/31 19:32:18;;;;;;;0.00;0.00;;;;;;;;;;6285132;22;20420;-84
2024/03/31 19:34:44;;;;;;;0.00;0.00;;;;;;;;;;6284068;22;20007;-92
2024/03/31 19:37:10;;;;;;;0.00;0.00;;;;;;;;;;6284455;22;20042;-91
2024/03/31 19:39:36;;;;;;;0.00;0.00;;;;;;;;;;6284068;22;20609;-91
2024/03/31 19:42:02;;;;;;;0.00;0.00;;;;;;;;;;6285670;22;20057;-90
2024/03/31 19:44:28;;;;;;;0.00;0.00;;;;;;;;;;6286138;22;19999;-88
2024/03/31 19:46:54;;;;;;;0.00;0.00;;;;;;;;;;6286120;22;19996;-91
2024/03/31 19:49:20;;;;;;;0.00;0.00;;;;;;;;;;6285798;22;19999;-84
2024/03/31 19:51:46;;;;;;;0.00;0.00;;;;;;;;;;6293837;22;20000;-91
2024/03/31 19:54:15;;;;;;;0.00;0.00;;;;;;;;;;6291559;22;20007;-89
2024/03/31 19:57:07;;;;;;;0.00;0.00;;;14.00;99.90;;;;;;6291943;22;19999;-87
2024/03/31 19:59:35;;;;;;;0.00;0.00;;;14.00;99.90;;;;;;6139820;23;20014;-91
2024/03/31 20:02:07;;;;;;;0.00;0.00;;;;;;;;;;6140880;23;20141;-90
2024/03/31 20:04:44;;;;;;;0.00;0.00;;;13.90;99.90;;;;;;6173095;23;20017;-89
2024/03/31 20:10:39;;;;;;;0.00;0.00;;;;;;;;;;6171473;23;20007;-88
2024/03/31 20:13:05;;;;;;;0.00;0.00;;;;;;;;;;6318634;22;20003;-86
2024/03/31 20:15:35;;;;;;;0.00;0.00;;;14.10;99.90;;;;;;6300285;22;20021;-85
2024/03/31 20:18:02;;;;;;;0.00;0.00;;;;;;;;;;6302338;22;19992;-84
2024/03/31 20:20:28;;;;;;;0.00;0.00;;;;;;;;;;6301731;22;20015;-83
2024/03/31 20:22:54;;;;;;;0.00;0.00;;;;;;;;;;6301307;22;20007;-84
2024/03/31 20:25:23;;;;;;;0.00;0.00;;;13.70;99.90;;;;;;6302347;22;20196;-86
2024/03/31 20:27:49;;;;;;;0.00;0.00;;;;;;;;;;6302868;22;20003;-85
2024/03/31 20:30:22;;;;;;;0.00;0.00;;;;;;;;;;6302751;22;19996;-86
2024/03/31 20:32:48;;;;;;;0.00;0.00;;;;;;;;;;6302450;22;20011;-86
2024/03/31 20:35:14;;;;;;;0.00;0.00;;;;;;;;;;6301731;22;19995;-86
2024/03/31 20:37:40;;;;;;;0.00;0.00;;;;;;;;;;6301567;22;20062;-84
2024/03/31 20:40:07;;;;;;;0.00;0.00;;;;;;;;;;6302152;22;20000;-86
2024/03/31 20:42:33;;;;;;;0.00;0.00;;;;;;;;;;6302558;22;20003;-86
2024/03/31 20:44:59;;;;;;;0.00;0.00;;;;;;;;;;6302573;22;20027;-86
2024/03/31 20:47:25;;;;;;;0.00;0.00;;;;;;;;;;6302202;22;20015;-88
2024/03/31 20:49:51;;;;;;;0.00;0.00;;;;;;;;;;6300746;22;19999;-86
2024/03/31 20:52:17;;;;;;;0.00;0.00;;;;;;;;;;6302408;22;20010;-86
2024/03/31 20:54:43;;;;;;;0.00;0.00;;;;;;;;;;6301986;22;19995;-85
2024/03/31 20:57:09;;;;;;;0.00;0.00;;;;;;;;;;6302708;22;20246;-86
2024/03/31 20:59:35;;;;;;;0.00;0.00;;;;;;;;;;6300624;22;20015;-87
2024/03/31 21:02:01;;;;;;;0.00;0.00;;;;;;;;;;6302284;22;20027;-84
2024/03/31 21:04:27;;;;;;;0.00;0.00;;;;;;;;;;6301569;22;20022;-83
2024/03/31 21:06:53;;;;;;;0.00;0.00;;;;;;;;;;6302041;22;19999;-85
2024/03/31 21:09:19;;;;;;;0.00;0.00;;;;;;;;;;6302515;22;19992;-84
2024/03/31 21:11:45;;;;;;;0.00;0.00;;;;;;;;;;6302132;22;20015;-85
2024/03/31 21:14:11;;;;;;;0.00;0.00;;;;;;;;;;6302227;22;19988;-84
2024/03/31 21:16:37;;;;;;;0.00;0.00;;;;;;;;;;6301545;22;20004;-85
2024/03/31 21:19:03;;;;;;;0.00;0.00;;;;;;;;;;6302425;22;19999;-86
2024/03/31 21:21:29;;;;;;;0.00;0.00;;;;;;;;;;6301490;22;19999;-83
2024/03/31 21:23:55;;;;;;;0.00;0.00;;;;;;;;;;6302414;22;20007;-85
2024/03/31 21:26:21;;;;;;;0.00;0.00;;;;;;;;;;6301513;22;20031;-85
2024/03/31 21:28:47;;;;;;;0.00;0.00;;;;;;;;;;6301377;22;20008;-85
2024/03/31 21:31:18;;;;;;;0.00;0.00;;;;;;;;;;6302420;22;20003;-86
2024/03/31 21:33:47;;;;;;;0.00;0.00;;;13.10;99.90;;;;;;6302659;22;20016;-84
2024/03/31 21:36:20;;;;;;;0.00;0.00;;;13.20;99.90;;;;;;6302421;22;19992;-85
2024/03/31 21:38:46;;;;;;;0.00;0.00;;;;;;;;;;6302465;22;19996;-84
2024/03/31 21:41:13;;;;;;;0.00;0.00;;;;;;;;;;6302363;22;20004;-86
2024/03/31 21:43:40;;;;;;;0.00;0.00;;;;;;;;;;6302288;22;19996;-84
2024/03/31 21:46:06;;;;;;;0.00;0.00;;;;;;;;;;6302036;22;19996;-85
2024/03/31 21:48:32;;;;;;;0.00;0.00;;;;;;;;;;6302640;22;19988;-82
2024/03/31 21:50:59;;;;;;;0.00;0.00;;;12.70;99.90;;;;;;6302808;22;19996;-85
2024/03/31 21:53:26;;;;;;;0.00;0.00;;;12.60;99.90;;;;;;6303937;22;19996;-85
2024/03/31 21:56:00;;;;;;;0.00;0.00;;;12.50;99.90;;;;;;6303666;22;20000;-83
2024/03/31 21:58:27;;;;;;;0.00;0.00;;;12.50;99.90;;;;;;6304410;22;19992;-85
2024/03/31 22:01:04;;;;;;;0.00;0.00;;;12.50;99.90;;;;;;6304029;22;20008;-85
2024/03/31 22:03:30;;;;;;;0.00;0.00;;;;;;;;;;6304586;22;20043;-85
2024/03/31 22:05:56;;;;;;;0.00;0.00;;;;;;;;;;6303863;22;19991;-83
2024/03/31 22:08:24;;;;;;;0.00;0.00;;;;;;;;;;6304345;22;20019;-85
2024/03/31 22:10:51;;;;;;;0.00;0.00;;;;;;;;;;6304153;22;19996;-84
2024/03/31 22:13:17;;;;;;;0.00;0.00;;;;;;;;;;6304568;22;20026;-85
2024/03/31 22:15:43;;;;;;;0.00;0.00;;;;;;;;;;6302880;22;19988;-83
2024/03/31 22:18:09;;;;;;;0.00;0.00;;;;;;;;;;6304254;22;20003;-86
2024/03/31 22:20:35;;;;;;;0.00;0.00;;;;;;;;;;6303765;22;20015;-81
2024/03/31 22:23:01;;;;;;;0.00;0.00;;;;;;;;;;6304358;22;20008;-84
2024/03/31 22:25:27;;;;;;;0.00;0.00;;;;;;;;;;6304341;22;20019;-85
2024/03/31 22:27:53;;;;;;;0.00;0.00;;;;;;;;;;6303587;22;20011;-85
2024/03/31 22:30:19;;;;;;;0.00;0.00;;;;;;;;;;6304443;22;20024;-83
2024/03/31 22:32:44;;;;;;;0.00;0.00;;;12.00;99.90;;;;;;6304043;22;19992;-84
2024/03/31 22:35:10;;;;;;;0.00;0.00;;;;;;;;;;6304172;22;19992;-86
2024/03/31 22:37:36;;;;;;;0.00;0.00;;;;;;;;;;6303566;22;20007;-85
2024/03/31 22:40:02;;;;;;;0.00;0.00;;;;;;;;;;6304076;22;20008;-86
2024/03/31 22:42:28;;;;;;;0.00;0.00;;;;;;;;;;6304334;22;19995;-85
2024/03/31 22:44:54;;;;;;;0.00;0.00;;;;;;;;;;6303940;22;20008;-85
2024/03/31 22:47:20;;;;;;;0.00;0.00;;;;;;;;;;6303861;22;20003;-85
2024/03/31 22:49:46;;;;;;;0.00;0.00;;;;;;;;;;6304021;22;19999;-84
2024/03/31 22:52:12;;;;;;;0.00;0.00;;;;;;;;;;6303949;22;19984;-84
2024/03/31 22:54:39;;;;;;;0.00;0.00;;;;;;;;;;6303900;22;19992;-82
2024/03/31 22:57:05;;;;;;;0.00;0.00;;;;;;;;;;6304148;22;19996;-87
2024/03/31 22:59:31;;;;;;;0.00;0.00;;;;;;;;;;6303645;22;19999;-86
2024/03/31 23:01:57;;;;;;;0.00;0.00;;;;;;;;;;6303609;22;20063;-84